createdAt,value
2018-10-04T00:00:50.289Z,3.26
2018-10-04T00:02:50.367Z,3.23
2018-10-04T00:04:49.712Z,3.23
2018-10-04T00:06:49.889Z,3.16
2018-10-04T00:08:49.974Z,3.11
2018-10-04T00:10:49.943Z,3.10
2018-10-04T00:12:49.935Z,3.09
2018-10-04T00:14:49.944Z,3.05
2018-10-04T00:16:50.073Z,3.04
2018-10-04T00:18:50.130Z,2.98
2018-10-04T00:20:50.129Z,2.92
2018-10-04T00:22:50.118Z,2.86
2018-10-04T00:24:50.117Z,2.84
2018-10-04T00:26:50.266Z,2.82
2018-10-04T00:28:50.242Z,2.76
2018-10-04T00:30:50.212Z,2.75
2018-10-04T00:32:50.236Z,2.76
2018-10-04T00:34:49.886Z,2.74
2018-10-04T00:36:50.228Z,2.72
2018-10-04T00:38:50.240Z,2.68
2018-10-04T00:40:50.222Z,2.67
2018-10-04T00:42:50.227Z,2.66
2018-10-04T00:44:50.250Z,2.65
2018-10-04T00:46:50.377Z,2.64
2018-10-04T00:48:50.454Z,2.60
2018-10-04T00:50:50.465Z,2.56
2018-10-04T00:52:50.551Z,2.54
2018-10-04T00:54:50.525Z,2.52
2018-10-04T00:56:49.745Z,2.51
2018-10-04T00:58:49.872Z,2.47
2018-10-04T01:00:50.095Z,2.46
2018-10-04T01:02:50.133Z,2.45
2018-10-04T01:04:50.513Z,2.44
2018-10-04T01:06:49.816Z,2.43
2018-10-04T01:08:49.853Z,2.42
2018-10-04T01:10:49.902Z,2.40
2018-10-04T01:12:49.929Z,2.39
2018-10-04T01:14:49.967Z,2.39
2018-10-04T01:16:50.143Z,2.37
2018-10-04T01:18:50.150Z,2.35
2018-10-04T01:20:50.514Z,2.33
2018-10-04T01:22:50.456Z,2.35
2018-10-04T01:24:50.474Z,2.36
2018-10-04T01:26:50.554Z,2.37
2018-10-04T01:28:50.678Z,2.38
2018-10-04T01:30:49.742Z,2.35
2018-10-04T01:32:49.752Z,2.34
2018-10-04T01:34:50.100Z,2.30
2018-10-04T01:36:50.348Z,2.22
2018-10-04T01:38:50.425Z,2.19
2018-10-04T01:40:50.450Z,2.17
2018-10-04T01:42:50.600Z,2.13
2018-10-04T01:44:50.585Z,2.11
2018-10-04T01:46:49.705Z,2.09
2018-10-04T01:48:49.772Z,2.08
2018-10-04T01:50:49.794Z,2.09
2018-10-04T01:52:49.857Z,2.10
2018-10-04T01:54:49.905Z,2.14
2018-10-04T01:56:50.085Z,2.13
2018-10-04T01:58:50.203Z,2.12
2018-10-04T02:00:50.221Z,2.10
2018-10-04T02:02:50.230Z,2.10
2018-10-04T02:04:50.637Z,2.10
2018-10-04T02:06:49.865Z,2.07
2018-10-04T02:08:50.441Z,2.05
2018-10-04T02:10:50.479Z,2.05
2018-10-04T02:12:50.504Z,2.01
2018-10-04T02:14:50.465Z,1.99
2018-10-04T02:16:50.610Z,1.98
2018-10-04T02:18:50.579Z,1.98
2018-10-04T02:20:50.554Z,1.97
2018-10-04T02:22:50.532Z,1.98
2018-10-04T02:24:49.758Z,1.95
2018-10-04T02:26:50.211Z,1.94
2018-10-04T02:28:50.222Z,1.93
2018-10-04T02:30:50.248Z,1.92
2018-10-04T02:32:50.263Z,1.89
2018-10-04T02:34:50.681Z,1.88
2018-10-04T02:36:50.060Z,1.88
2018-10-04T02:38:50.190Z,1.88
2018-10-04T02:40:50.199Z,1.87
2018-10-04T02:42:50.279Z,1.87
2018-10-04T02:44:50.311Z,1.81
2018-10-04T02:46:49.783Z,1.82
2018-10-04T02:48:50.404Z,1.80
2018-10-04T02:50:50.608Z,1.80
2018-10-04T02:52:49.753Z,1.79
2018-10-04T02:54:49.884Z,1.75
2018-10-04T02:56:50.351Z,1.73
2018-10-04T02:58:50.459Z,1.71
2018-10-04T03:00:50.415Z,1.69
2018-10-04T03:02:50.508Z,1.68
2018-10-04T03:04:49.894Z,1.63
2018-10-04T03:06:50.144Z,1.60
2018-10-04T03:08:50.147Z,1.60
2018-10-04T03:10:50.170Z,1.55
2018-10-04T03:12:50.329Z,1.53
2018-10-04T03:14:50.321Z,1.49
2018-10-04T03:16:50.540Z,1.48
2018-10-04T03:18:50.576Z,1.46
2018-10-04T03:20:50.589Z,1.43
2018-10-04T03:22:50.560Z,1.42
2018-10-04T03:24:50.651Z,1.42
2018-10-04T03:26:49.840Z,1.45
2018-10-04T03:28:49.921Z,1.42
2018-10-04T03:30:50.043Z,1.38
2018-10-04T03:32:50.288Z,1.36
2018-10-04T03:34:50.674Z,1.32
2018-10-04T03:36:49.903Z,1.30
2018-10-04T03:38:49.923Z,1.28
2018-10-04T03:40:50.023Z,1.27
2018-10-04T03:42:49.993Z,1.26
2018-10-04T03:44:50.169Z,1.25
2018-10-04T03:46:50.522Z,1.24
2018-10-04T03:48:50.593Z,1.25
2018-10-04T03:50:50.594Z,1.24
2018-10-04T03:52:50.620Z,1.20
2018-10-04T03:54:50.566Z,1.16
2018-10-04T03:56:49.827Z,1.13
2018-10-04T03:58:49.871Z,1.12
2018-10-04T04:00:49.945Z,1.13
2018-10-04T04:02:49.971Z,1.13
2018-10-04T04:04:50.290Z,1.07
2018-10-04T04:06:50.406Z,1.05
2018-10-04T04:08:50.441Z,1.04
2018-10-04T04:10:50.468Z,1.01
2018-10-04T04:12:50.612Z,0.99
2018-10-04T04:14:50.580Z,1.01
2018-10-04T04:16:49.864Z,1.03
2018-10-04T04:18:50.054Z,1.03
2018-10-04T04:20:50.021Z,1.01
2018-10-04T04:22:50.044Z,0.99
2018-10-04T04:24:50.056Z,0.98
2018-10-04T04:26:49.808Z,0.98
2018-10-04T04:28:49.906Z,0.95
2018-10-04T04:30:50.237Z,0.94
2018-10-04T04:32:50.607Z,0.95
2018-10-04T04:34:50.325Z,0.96
2018-10-04T04:36:50.553Z,0.97
2018-10-04T04:38:50.592Z,0.93
2018-10-04T04:40:51.120Z,0.91
2018-10-04T04:42:50.405Z,0.90
2018-10-04T04:44:50.425Z,0.89
2018-10-04T04:46:51.792Z,0.88
2018-10-04T04:48:49.866Z,0.88
2018-10-04T04:50:50.027Z,0.87
2018-10-04T04:52:50.439Z,0.86
2018-10-04T04:54:49.691Z,0.85
2018-10-04T04:56:49.805Z,0.84
2018-10-04T04:58:50.111Z,0.82
2018-10-04T05:00:50.104Z,0.83
2018-10-04T05:02:50.263Z,0.84
2018-10-04T05:04:49.715Z,0.81
2018-10-04T05:06:50.004Z,0.83
2018-10-04T05:08:50.154Z,0.86
2018-10-04T05:10:50.153Z,0.87
2018-10-04T05:12:50.184Z,0.88
2018-10-04T05:14:50.125Z,0.86
2018-10-04T05:16:50.337Z,0.86
2018-10-04T05:18:50.485Z,0.90
2018-10-04T05:20:50.552Z,0.89
2018-10-04T05:22:50.474Z,0.90
2018-10-04T05:24:50.545Z,0.89
2018-10-04T05:26:50.671Z,0.89
2018-10-04T05:28:50.270Z,0.91
2018-10-04T05:30:50.257Z,0.92
2018-10-04T05:32:50.338Z,0.95
2018-10-04T05:34:49.820Z,0.96
2018-10-04T05:36:50.703Z,0.96
2018-10-04T05:38:49.764Z,1.01
2018-10-04T05:40:49.786Z,1.02
2018-10-04T05:42:49.819Z,1.07
2018-10-04T05:44:50.075Z,1.10
2018-10-04T05:46:50.264Z,1.17
2018-10-04T05:48:50.253Z,1.20
2018-10-04T05:50:50.228Z,1.23
2018-10-04T05:52:50.538Z,1.25
2018-10-04T05:54:50.557Z,1.31
2018-10-04T05:56:49.710Z,1.38
2018-10-04T05:58:49.928Z,1.44
2018-10-04T06:00:49.955Z,1.47
2018-10-04T06:02:50.011Z,1.55
2018-10-04T06:04:50.753Z,1.61
2018-10-04T06:06:50.130Z,1.71
2018-10-04T06:08:50.207Z,1.78
2018-10-04T06:10:50.255Z,1.88
2018-10-04T06:12:50.244Z,1.94
2018-10-04T06:14:50.621Z,2.11
2018-10-04T06:16:50.105Z,2.17
2018-10-04T06:18:50.181Z,2.30
2018-10-04T06:20:50.179Z,2.36
2018-10-04T06:22:50.196Z,2.44
2018-10-04T06:24:50.178Z,2.56
2018-10-04T06:26:50.435Z,2.64
2018-10-04T06:28:50.444Z,2.70
2018-10-04T06:30:50.431Z,2.86
2018-10-04T06:32:50.483Z,2.95
2018-10-04T06:34:50.023Z,3.05
2018-10-04T06:36:50.312Z,3.13
2018-10-04T06:38:50.409Z,3.28
2018-10-04T06:40:50.397Z,3.38
2018-10-04T06:42:50.540Z,3.49
2018-10-04T06:44:50.557Z,3.56
2018-10-04T06:46:49.725Z,3.63
2018-10-04T06:48:49.813Z,3.82
2018-10-04T06:50:49.962Z,3.94
2018-10-04T06:52:49.942Z,4.16
2018-10-04T06:54:49.942Z,4.30
2018-10-04T06:56:50.092Z,4.4
2018-10-04T06:58:50.120Z,4.6
2018-10-04T07:00:50.199Z,4.6
2018-10-04T07:02:50.245Z,4.7
2018-10-04T07:04:50.522Z,4.9
2018-10-04T07:06:49.713Z,4.9
2018-10-04T07:08:49.833Z,5.0
2018-10-04T07:10:49.892Z,5.1
2018-10-04T07:12:49.977Z,5.2
2018-10-04T07:14:49.955Z,5.4
2018-10-04T07:16:50.180Z,5.6
2018-10-04T07:18:50.176Z,5.6
2018-10-04T07:20:50.398Z,5.6
2018-10-04T07:22:50.518Z,5.8
2018-10-04T07:24:50.641Z,5.9
2018-10-04T07:26:49.719Z,6.0
2018-10-04T07:28:49.705Z,6.0
2018-10-04T07:30:49.729Z,6.1
2018-10-04T07:32:49.888Z,6.2
2018-10-04T07:34:50.549Z,6.4
2018-10-04T07:36:49.994Z,6.4
2018-10-04T07:38:49.976Z,6.5
2018-10-04T07:40:49.943Z,6.7
2018-10-04T07:42:49.957Z,6.7
2018-10-04T07:44:49.913Z,6.9
2018-10-04T07:46:50.024Z,6.9
2018-10-04T07:48:49.943Z,7.0
2018-10-04T07:50:49.959Z,7.1
2018-10-04T07:52:50.081Z,7.2
2018-10-04T07:54:50.083Z,7.3
2018-10-04T07:56:50.371Z,7.3
2018-10-04T07:58:50.426Z,7.4
2018-10-04T08:00:50.374Z,7.6
2018-10-04T08:02:50.345Z,7.6
2018-10-04T08:04:49.867Z,7.6
2018-10-04T08:06:50.610Z,7.8
2018-10-04T08:08:49.770Z,7.8
2018-10-04T08:10:49.803Z,7.9
2018-10-04T08:12:49.736Z,7.9
2018-10-04T08:14:49.740Z,8.0
2018-10-04T08:16:50.073Z,8.1
2018-10-04T08:18:50.087Z,8.3
2018-10-04T08:20:50.247Z,8.4
2018-10-04T08:22:50.271Z,8.4
2018-10-04T08:24:50.316Z,8.4
2018-10-04T08:26:50.494Z,8.6
2018-10-04T08:28:50.500Z,8.7
2018-10-04T08:30:50.537Z,8.8
2018-10-04T08:32:50.501Z,8.8
2018-10-04T08:34:49.717Z,8.9
2018-10-04T08:36:49.901Z,9.0
2018-10-04T08:38:49.875Z,9.1
2018-10-04T08:40:50.083Z,9.2
2018-10-04T08:42:50.139Z,9.2
2018-10-04T08:44:50.252Z,9.3
2018-10-04T08:46:50.405Z,9.4
2018-10-04T08:48:50.460Z,9.6
2018-10-04T08:50:50.470Z,9.7
2018-10-04T08:52:50.449Z,9.8
2018-10-04T08:54:50.555Z,9.8
2018-10-04T08:56:49.819Z,9.8
2018-10-04T08:58:49.865Z,10.0
2018-10-04T09:00:50.004Z,10.0
2018-10-04T09:02:50.052Z,10.2
2018-10-04T09:04:50.440Z,10.2
2018-10-04T09:06:50.287Z,10.2
2018-10-04T09:08:50.652Z,10.4
2018-10-04T09:10:49.957Z,10.5
2018-10-04T09:12:50.184Z,10.5
2018-10-04T09:14:50.521Z,10.6
2018-10-04T09:16:49.856Z,10.7
2018-10-04T09:18:49.894Z,10.9
2018-10-04T09:20:49.983Z,10.9
2018-10-04T09:22:49.983Z,11.0
2018-10-04T09:24:50.140Z,11.1
2018-10-04T09:26:50.308Z,11.2
2018-10-04T09:28:50.280Z,11.3
2018-10-04T09:30:50.276Z,11.3
2018-10-04T09:32:49.735Z,11.4
2018-10-04T09:34:50.133Z,11.5
2018-10-04T09:36:50.323Z,11.6
2018-10-04T09:38:49.797Z,11.6
2018-10-04T09:40:50.691Z,11.7
2018-10-04T09:42:49.764Z,11.8
2018-10-04T09:44:49.774Z,11.9
2018-10-04T09:46:50.023Z,12.0
2018-10-04T09:48:49.966Z,12.1
2018-10-04T09:50:50.063Z,12.1
2018-10-04T09:52:50.105Z,12.2
2018-10-04T09:54:50.202Z,12.4
2018-10-04T09:56:50.355Z,12.5
2018-10-04T09:58:50.057Z,12.5
2018-10-04T10:00:50.092Z,12.6
2018-10-04T10:02:50.129Z,12.7
2018-10-04T10:04:50.211Z,12.8
2018-10-04T10:06:50.335Z,13.0
2018-10-04T10:08:50.305Z,13.0
2018-10-04T10:10:50.511Z,13.0
2018-10-04T10:12:50.541Z,13.1
2018-10-04T10:14:50.679Z,13.1
2018-10-04T10:16:50.192Z,13.2
2018-10-04T10:18:50.203Z,13.2
2018-10-04T10:20:50.231Z,13.3
2018-10-04T10:22:50.361Z,13.4
2018-10-04T10:24:50.309Z,13.5
2018-10-04T10:26:50.480Z,13.5
2018-10-04T10:28:50.549Z,13.6
2018-10-04T10:30:49.719Z,13.6
2018-10-04T10:32:49.762Z,13.7
2018-10-04T10:34:50.178Z,13.7
2018-10-04T10:36:50.263Z,13.8
2018-10-04T10:38:50.243Z,13.8
2018-10-04T10:40:50.587Z,14.0
2018-10-04T10:42:50.626Z,14.0
2018-10-04T10:44:50.615Z,14.1
2018-10-04T10:46:49.720Z,14.1
2018-10-04T10:48:50.671Z,14.2
2018-10-04T10:50:49.837Z,14.2
2018-10-04T10:52:49.781Z,14.2
2018-10-04T10:54:49.761Z,14.3
2018-10-04T10:56:49.906Z,14.3
2018-10-04T10:58:50.088Z,14.3
2018-10-04T11:00:50.082Z,14.4
2018-10-04T11:02:50.058Z,14.4
2018-10-04T11:04:50.374Z,14.4
2018-10-04T11:06:50.624Z,14.5
2018-10-04T11:08:50.712Z,14.5
2018-10-04T11:10:49.735Z,14.6
2018-10-04T11:12:49.777Z,14.5
2018-10-04T11:14:49.819Z,14.5
2018-10-04T11:16:50.157Z,14.6
2018-10-04T11:18:50.129Z,14.6
2018-10-04T11:20:50.129Z,14.6
2018-10-04T11:22:50.156Z,14.6
2018-10-04T11:24:50.160Z,14.7
2018-10-04T11:26:50.265Z,14.8
2018-10-04T11:28:50.223Z,14.9
2018-10-04T11:30:50.247Z,14.9
2018-10-04T11:32:50.324Z,15.0
2018-10-04T11:34:49.724Z,15.0
2018-10-04T11:36:49.951Z,15.1
2018-10-04T11:38:50.290Z,15.2
2018-10-04T11:40:50.394Z,15.3
2018-10-04T11:42:50.655Z,15.3
2018-10-04T11:44:50.929Z,15.4
2018-10-04T11:46:50.245Z,15.4
2018-10-04T11:48:50.453Z,15.4
2018-10-04T11:50:50.665Z,15.4
2018-10-04T11:52:50.832Z,15.4
2018-10-04T11:54:50.145Z,15.6
2018-10-04T11:56:51.247Z,15.6
2018-10-04T11:58:50.902Z,15.7
2018-10-04T12:00:50.090Z,15.8
2018-10-04T12:02:50.264Z,15.8
2018-10-04T12:04:50.864Z,15.9
2018-10-04T12:06:51.510Z,16.0
2018-10-04T12:08:50.196Z,16.0
2018-10-04T12:10:50.407Z,16.0
2018-10-04T12:12:50.797Z,16.0
2018-10-04T12:14:50.550Z,16.0
2018-10-04T12:16:50.181Z,16.0
2018-10-04T12:18:50.795Z,16.2
2018-10-04T12:20:50.090Z,16.2
2018-10-04T12:22:50.296Z,16.2
2018-10-04T12:24:50.897Z,16.2
2018-10-04T12:26:50.363Z,16.2
2018-10-04T12:28:50.541Z,16.2
2018-10-04T12:30:51.775Z,16.3
2018-10-04T12:32:50.166Z,16.4
2018-10-04T12:34:50.632Z,16.5
2018-10-04T12:36:49.987Z,16.6
2018-10-04T12:38:50.078Z,16.6
2018-10-04T12:40:50.211Z,16.6
2018-10-04T12:42:50.374Z,16.7
2018-10-04T12:44:50.486Z,16.7
2018-10-04T12:46:50.502Z,16.7
2018-10-04T12:48:50.744Z,16.8
2018-10-04T12:50:49.964Z,16.8
2018-10-04T12:52:50.087Z,16.9
2018-10-04T12:54:50.232Z,17.0
2018-10-04T12:56:50.568Z,17.0
2018-10-04T12:58:50.799Z,17.0
2018-10-04T13:00:50.343Z,17.0
2018-10-04T13:02:50.763Z,17.1
2018-10-04T13:04:50.372Z,17.1
2018-10-04T13:06:52.180Z,17.1
2018-10-04T13:08:50.726Z,17.1
2018-10-04T13:10:49.929Z,17.2
2018-10-04T13:12:50.079Z,17.2
2018-10-04T13:14:50.228Z,17.2
2018-10-04T13:16:50.839Z,17.2
2018-10-04T13:18:50.100Z,17.2
2018-10-04T13:20:51.811Z,17.2
2018-10-04T13:22:50.316Z,17.1
2018-10-04T13:24:50.656Z,17.1
2018-10-04T13:26:50.179Z,17.2
2018-10-04T13:28:50.274Z,17.2
2018-10-04T13:30:50.446Z,17.2
2018-10-04T13:32:50.594Z,17.2
2018-10-04T13:34:50.178Z,17.2
2018-10-04T13:36:50.528Z,17.3
2018-10-04T13:38:50.681Z,17.4
2018-10-04T13:40:51.520Z,17.5
2018-10-04T13:42:50.125Z,17.5
2018-10-04T13:44:50.444Z,17.6
2018-10-04T13:46:49.897Z,17.6
2018-10-04T13:48:50.055Z,17.7
2018-10-04T13:50:50.254Z,17.7
2018-10-04T13:52:50.525Z,17.7
2018-10-04T13:54:50.604Z,17.8
2018-10-04T13:56:49.962Z,17.8
2018-10-04T13:58:50.611Z,17.8
2018-10-04T14:00:50.853Z,17.8
2018-10-04T14:02:50.001Z,17.9
2018-10-04T14:04:50.551Z,17.9
2018-10-04T14:06:49.984Z,18.0
2018-10-04T14:08:50.270Z,18.0
2018-10-04T14:10:50.257Z,18.0
2018-10-04T14:12:50.420Z,18.0
2018-10-04T14:14:50.654Z,18.0
2018-10-04T14:16:49.946Z,18.0
2018-10-04T14:18:50.241Z,18.1
2018-10-04T14:20:50.396Z,18.2
2018-10-04T14:22:50.576Z,18.2
2018-10-04T14:24:51.399Z,18.1
2018-10-04T14:26:50.868Z,18.2
2018-10-04T14:28:50.151Z,18.2
2018-10-04T14:30:50.257Z,18.2
2018-10-04T14:32:51.370Z,18.2
2018-10-04T14:34:50.301Z,18.2
2018-10-04T14:36:50.581Z,18.2
2018-10-04T14:38:50.766Z,18.2
2018-10-04T14:40:49.938Z,18.2
2018-10-04T14:42:50.193Z,18.2
2018-10-04T14:44:50.607Z,18.2
2018-10-04T14:46:49.972Z,18.1
2018-10-04T14:48:50.116Z,18.1
2018-10-04T14:50:50.330Z,18.1
2018-10-04T14:52:50.479Z,18.1
2018-10-04T14:54:50.664Z,18.1
2018-10-04T14:56:49.965Z,18.1
2018-10-04T14:58:50.212Z,18.1
2018-10-04T15:00:50.350Z,18.1
2018-10-04T15:02:50.698Z,18.1
2018-10-04T15:04:50.175Z,18.1
2018-10-04T15:06:50.379Z,18.0
2018-10-04T15:08:50.481Z,18.0
2018-10-04T15:10:50.671Z,18.0
2018-10-04T15:12:50.749Z,18.0
2018-10-04T15:14:49.818Z,17.9
2018-10-04T15:16:50.523Z,17.9
2018-10-04T15:18:50.580Z,17.8
2018-10-04T15:20:50.696Z,17.8
2018-10-04T15:22:49.807Z,17.8
2018-10-04T15:24:49.724Z,17.8
2018-10-04T15:26:49.924Z,17.8
2018-10-04T15:28:49.921Z,17.64
2018-10-04T15:30:50.417Z,17.42
2018-10-04T15:32:50.644Z,17.24
2018-10-04T15:34:50.145Z,17.16
2018-10-04T15:36:50.205Z,17.04
2018-10-04T15:38:50.182Z,16.96
2018-10-04T15:40:50.189Z,16.86
2018-10-04T15:42:50.503Z,16.81
2018-10-04T15:44:49.704Z,16.73
2018-10-04T15:46:50.153Z,16.68
2018-10-04T15:48:50.137Z,16.65
2018-10-04T15:50:50.077Z,16.57
2018-10-04T15:52:50.048Z,16.50
2018-10-04T15:54:50.618Z,16.46
2018-10-04T15:56:50.024Z,16.39
2018-10-04T15:58:50.015Z,16.27
2018-10-04T16:00:49.976Z,16.21
2018-10-04T16:02:49.919Z,16.16
2018-10-04T16:04:50.196Z,16.10
2018-10-04T16:06:50.303Z,15.98
2018-10-04T16:08:50.290Z,15.90
2018-10-04T16:10:50.219Z,15.84
2018-10-04T16:12:50.164Z,15.76
2018-10-04T16:14:50.333Z,15.68
2018-10-04T16:16:50.557Z,15.65
2018-10-04T16:18:50.459Z,15.61
2018-10-04T16:20:50.447Z,15.51
2018-10-04T16:22:50.426Z,15.44
2018-10-04T16:24:50.345Z,15.25
2018-10-04T16:26:50.388Z,15.25
2018-10-04T16:28:50.368Z,15.03
2018-10-04T16:30:50.271Z,15.03
2018-10-04T16:32:50.256Z,14.64
2018-10-04T16:34:50.477Z,14.54
2018-10-04T16:36:50.683Z,14.30
2018-10-04T16:38:50.679Z,14.13
2018-10-04T16:40:50.634Z,14.02
2018-10-04T16:42:50.688Z,13.86
2018-10-04T16:44:50.652Z,13.75
2018-10-04T16:46:49.974Z,13.57
2018-10-04T16:48:50.187Z,13.49
2018-10-04T16:50:50.143Z,13.25
2018-10-04T16:52:50.095Z,13.06
2018-10-04T16:54:50.224Z,12.94
2018-10-04T16:56:50.557Z,12.77
2018-10-04T16:58:50.588Z,12.66
2018-10-04T17:00:50.592Z,12.52
2018-10-04T17:02:50.606Z,12.44
2018-10-04T17:04:50.056Z,12.25
2018-10-04T17:06:50.188Z,12.14
2018-10-04T17:08:50.368Z,12.01
2018-10-04T17:10:50.430Z,11.92
2018-10-04T17:12:50.399Z,11.87
2018-10-04T17:14:50.533Z,11.76
2018-10-04T17:16:49.727Z,11.59
2018-10-04T17:18:49.740Z,11.48
2018-10-04T17:20:49.811Z,11.41
2018-10-04T17:22:49.766Z,11.32
2018-10-04T17:24:49.828Z,11.25
2018-10-04T17:26:50.012Z,11.19
2018-10-04T17:28:49.984Z,11.08
2018-10-04T17:30:50.085Z,11.03
2018-10-04T17:32:50.022Z,10.97
2018-10-04T17:34:50.463Z,10.93
2018-10-04T17:36:49.708Z,10.83
2018-10-04T17:38:49.718Z,10.74
2018-10-04T17:40:49.755Z,10.71
2018-10-04T17:42:49.736Z,10.69
2018-10-04T17:44:49.799Z,10.61
2018-10-04T17:46:50.168Z,10.50
2018-10-04T17:48:50.163Z,10.43
2018-10-04T17:50:50.156Z,10.34
2018-10-04T17:52:50.355Z,10.28
2018-10-04T17:54:50.283Z,10.22
2018-10-04T17:56:50.396Z,10.16
2018-10-04T17:58:50.435Z,10.08
2018-10-04T18:00:50.375Z,10.03
2018-10-04T18:02:50.401Z,9.98
2018-10-04T18:04:49.954Z,9.92
2018-10-04T18:06:50.100Z,9.86
2018-10-04T18:08:50.166Z,9.78
2018-10-04T18:10:50.410Z,9.74
2018-10-04T18:12:50.567Z,9.71
2018-10-04T18:14:50.580Z,9.63
2018-10-04T18:16:49.910Z,9.57
2018-10-04T18:18:49.968Z,9.48
2018-10-04T18:20:49.892Z,9.38
2018-10-04T18:22:50.011Z,9.33
2018-10-04T18:24:50.042Z,9.30
2018-10-04T18:26:50.224Z,9.27
2018-10-04T18:28:50.327Z,9.26
2018-10-04T18:30:50.321Z,9.19
2018-10-04T18:32:50.790Z,9.19
2018-10-04T18:34:50.141Z,9.05
2018-10-04T18:36:50.305Z,9.01
2018-10-04T18:38:50.550Z,8.96
2018-10-04T18:40:50.701Z,8.88
2018-10-04T18:42:49.727Z,8.85
2018-10-04T18:44:49.793Z,8.80
2018-10-04T18:46:50.027Z,8.75
2018-10-04T18:48:50.051Z,8.69
2018-10-04T18:50:50.053Z,8.63
2018-10-04T18:52:50.777Z,8.61
2018-10-04T18:54:49.904Z,8.59
2018-10-04T18:56:49.936Z,8.59
2018-10-04T18:58:49.926Z,8.59
2018-10-04T19:00:49.947Z,8.58
2018-10-04T19:02:49.927Z,8.53
2018-10-04T19:04:50.171Z,8.47
2018-10-04T19:06:50.400Z,8.40
2018-10-04T19:08:50.384Z,8.36
2018-10-04T19:10:50.419Z,8.33
2018-10-04T19:12:50.433Z,8.29
2018-10-04T19:14:50.409Z,8.24
2018-10-04T19:16:50.718Z,8.19
2018-10-04T19:18:49.830Z,8.15
2018-10-04T19:20:49.824Z,8.10
2018-10-04T19:22:49.803Z,8.07
2018-10-04T19:24:49.913Z,8.04
2018-10-04T19:26:50.081Z,7.99
2018-10-04T19:28:50.129Z,7.93
2018-10-04T19:30:50.083Z,7.91
2018-10-04T19:32:50.083Z,7.88
2018-10-04T19:34:50.602Z,7.85
2018-10-04T19:36:49.875Z,7.84
2018-10-04T19:38:49.958Z,7.82
2018-10-04T19:40:49.954Z,7.73
2018-10-04T19:42:49.938Z,7.68
2018-10-04T19:44:50.023Z,7.68
2018-10-04T19:46:50.640Z,7.67
2018-10-04T19:48:50.687Z,7.65
2018-10-04T19:50:49.684Z,7.62
2018-10-04T19:52:49.746Z,7.60
2018-10-04T19:54:49.720Z,7.59
2018-10-04T19:56:49.895Z,7.59
2018-10-04T19:58:49.922Z,7.59
2018-10-04T20:00:49.965Z,7.56
2018-10-04T20:02:50.016Z,7.54
2018-10-04T20:04:50.347Z,7.51
2018-10-04T20:06:50.506Z,7.51
2018-10-04T20:08:50.528Z,7.47
2018-10-04T20:10:50.479Z,7.45
2018-10-04T20:12:50.590Z,7.42
2018-10-04T20:14:50.558Z,7.39
2018-10-04T20:16:49.739Z,7.31
2018-10-04T20:18:49.738Z,7.28
2018-10-04T20:20:49.736Z,7.26
2018-10-04T20:22:49.702Z,7.25
2018-10-04T20:24:50.647Z,7.19
2018-10-04T20:26:49.915Z,7.18
2018-10-04T20:28:49.919Z,7.16
2018-10-04T20:30:49.898Z,7.14
2018-10-04T20:32:49.975Z,7.12
2018-10-04T20:34:50.588Z,7.08
2018-10-04T20:36:49.900Z,7.06
2018-10-04T20:38:49.939Z,7.04
2018-10-04T20:40:50.006Z,7.04
2018-10-04T20:42:50.094Z,6.97
2018-10-04T20:44:50.146Z,6.92
2018-10-04T20:46:50.324Z,6.91
2018-10-04T20:48:50.365Z,6.86
2018-10-04T20:50:50.446Z,6.80
2018-10-04T20:52:50.464Z,6.76
2018-10-04T20:54:50.592Z,6.76
2018-10-04T20:56:50.624Z,6.73
2018-10-04T20:58:49.974Z,6.71
2018-10-04T21:00:50.126Z,6.69
2018-10-04T21:02:50.087Z,6.66
2018-10-04T21:04:50.467Z,6.61
2018-10-04T21:06:50.685Z,6.58
2018-10-04T21:08:49.739Z,6.57
2018-10-04T21:10:49.870Z,6.50
2018-10-04T21:12:49.969Z,6.49
2018-10-04T21:14:49.944Z,6.45
2018-10-04T21:16:50.174Z,6.41
2018-10-04T21:18:50.156Z,6.36
2018-10-04T21:20:50.275Z,6.34
2018-10-04T21:22:50.447Z,6.31
2018-10-04T21:24:50.568Z,6.31
2018-10-04T21:26:49.725Z,6.22
2018-10-04T21:28:49.731Z,6.20
2018-10-04T21:30:49.761Z,6.17
2018-10-04T21:32:49.768Z,6.12
2018-10-04T21:34:50.057Z,6.10
2018-10-04T21:36:50.195Z,6.07
2018-10-04T21:38:50.243Z,6.07
2018-10-04T21:40:50.268Z,6.04
2018-10-04T21:42:50.279Z,6.04
2018-10-04T21:44:50.227Z,5.99
2018-10-04T21:46:50.285Z,5.95
2018-10-04T21:48:50.294Z,5.94
2018-10-04T21:50:50.379Z,5.89
2018-10-04T21:52:50.458Z,5.89
2018-10-04T21:54:50.415Z,5.89
2018-10-04T21:56:50.574Z,5.87
2018-10-04T21:58:50.539Z,5.85
2018-10-04T22:00:50.520Z,5.83
2018-10-04T22:02:50.572Z,5.79
2018-10-04T22:04:49.945Z,5.74
2018-10-04T22:06:50.207Z,5.71
2018-10-04T22:08:50.144Z,5.66
2018-10-04T22:10:50.098Z,5.64
2018-10-04T22:12:50.123Z,5.62
2018-10-04T22:14:50.096Z,5.58
2018-10-04T22:16:50.223Z,5.56
2018-10-04T22:18:50.169Z,5.59
2018-10-04T22:20:50.164Z,5.55
2018-10-04T22:22:50.173Z,5.57
2018-10-04T22:24:50.187Z,5.57
2018-10-04T22:26:50.452Z,5.54
2018-10-04T22:28:50.512Z,5.54
2018-10-04T22:30:50.418Z,5.54
2018-10-04T22:32:50.588Z,5.55
2018-10-04T22:34:50.026Z,5.56
2018-10-04T22:36:50.236Z,5.58
2018-10-04T22:38:50.247Z,5.53
2018-10-04T22:40:50.306Z,5.45
2018-10-04T22:42:50.296Z,5.42
2018-10-04T22:44:50.262Z,5.38
2018-10-04T22:46:50.430Z,5.37
2018-10-04T22:48:50.469Z,5.37
2018-10-04T22:50:50.445Z,5.36
2018-10-04T22:52:50.510Z,5.30
2018-10-04T22:54:50.581Z,5.23
2018-10-04T22:56:50.261Z,5.19
2018-10-04T22:58:50.367Z,5.19
2018-10-04T23:00:50.390Z,5.14
2018-10-04T23:02:54.269Z,5.14
2018-10-04T23:04:49.754Z,5.07
2018-10-04T23:06:49.978Z,5.04
2018-10-04T23:08:50.004Z,4.99
2018-10-04T23:10:50.124Z,4.97
2018-10-04T23:12:50.078Z,4.93
2018-10-04T23:14:50.118Z,4.86
2018-10-04T23:16:50.235Z,4.83
2018-10-04T23:18:50.237Z,4.79
2018-10-04T23:20:50.320Z,4.77
2018-10-04T23:22:50.383Z,4.76
2018-10-04T23:24:50.394Z,4.73
2018-10-04T23:26:50.819Z,4.69
2018-10-04T23:28:49.943Z,4.65
2018-10-04T23:30:50.122Z,4.62
2018-10-04T23:32:50.084Z,4.57
2018-10-04T23:34:50.461Z,4.55
2018-10-04T23:36:49.742Z,4.55
2018-10-04T23:38:49.728Z,4.53
2018-10-04T23:40:49.814Z,4.53
2018-10-04T23:42:49.924Z,4.49
2018-10-04T23:44:49.956Z,4.45
2018-10-04T23:46:50.070Z,4.43
2018-10-04T23:48:50.074Z,4.39
2018-10-04T23:50:50.049Z,4.35
2018-10-04T23:52:50.047Z,4.31
2018-10-04T23:54:50.035Z,4.28
2018-10-04T23:56:50.292Z,4.27
2018-10-04T23:58:50.238Z,4.25
